CDG5651 ZLXH-ZBAA
Flight info
| Callsign | CDG5651 |
|---|---|
| Flight time | 1h 52m |
| Altitude | 31100 |
| Route | LEVGI W211 ZWX W219 YHD W217 VIKON W72 DUDIL W69 GUVBA |
| Aircraft | B738/M-SDE2E3FGHIRWXY/LB1 |
Departure
| Time | 2026-04-26 07:35 |
|---|---|
| Airport | Gannan Xiahe Airport (ZLXH) |
Arrival
| Time | 2026-04-26 09:27 |
|---|---|
| Airport | Beijing Capital International Airport (ZBAA) |
| Time | Latitude | Longitude | Altitude | Speed | Heading |
|---|---|---|---|---|---|
| 2026-04-26 07:31 | 34.82147 | 102.62158 | 10512 ft | 0 kts | 283° |
| 2026-04-26 07:31 | 34.82148 | 102.62152 | 10512 ft | 3 kts | 282° |
| 2026-04-26 07:31 | 34.82156 | 102.62052 | 10512 ft | 12 kts | 251° |
| 2026-04-26 07:32 | 34.82051 | 102.61996 | 10506 ft | 21 kts | 194° |
| 2026-04-26 07:32 | 34.81971 | 102.61845 | 10502 ft | 27 kts | 285° |
| 2026-04-26 07:32 | 34.82022 | 102.61600 | 10504 ft | 32 kts | 283° |
| 2026-04-26 07:32 | 34.82060 | 102.61411 | 10505 ft | 36 kts | 285° |
| 2026-04-26 07:33 | 34.82150 | 102.60983 | 10513 ft | 41 kts | 284° |
| 2026-04-26 07:33 | 34.82222 | 102.60632 | 10520 ft | 42 kts | 288° |
| 2026-04-26 07:33 | 34.82231 | 102.60515 | 10520 ft | 9 kts | 184° |
| 2026-04-26 07:33 | 34.82223 | 102.60570 | 10520 ft | 0 kts | 100° |
| 2026-04-26 07:34 | 34.82207 | 102.60676 | 10520 ft | 41 kts | 99° |
| 2026-04-26 07:34 | 34.82089 | 102.61269 | 10507 ft | 103 kts | 103° |
| 2026-04-26 07:34 | 34.81876 | 102.62360 | 10493 ft | 158 kts | 103° |
| 2026-04-26 07:34 | 34.81702 | 102.63309 | 10550 ft | 182 kts | 101° |
| 2026-04-26 07:35 | 34.81426 | 102.65314 | 11258 ft | 188 kts | 86° |
| 2026-04-26 07:35 | 34.81592 | 102.66349 | 11593 ft | 190 kts | 63° |
| 2026-04-26 07:35 | 34.82956 | 102.67645 | 12195 ft | 203 kts | 13° |
| 2026-04-26 07:35 | 34.84415 | 102.67677 | 12585 ft | 216 kts | 1° |
| 2026-04-26 07:36 | 34.85967 | 102.67612 | 12962 ft | 226 kts | 6° |
| 2026-04-26 07:36 | 34.87535 | 102.67886 | 13283 ft | 239 kts | 19° |
| 2026-04-26 07:36 | 34.88617 | 102.68384 | 13464 ft | 252 kts | 30° |
| 2026-04-26 07:36 | 34.90671 | 102.69904 | 14073 ft | 269 kts | 36° |
| 2026-04-26 07:37 | 34.92256 | 102.71213 | 14477 ft | 285 kts | 36° |
| 2026-04-26 07:37 | 34.93933 | 102.72590 | 14915 ft | 300 kts | 35° |
| 2026-04-26 07:37 | 34.95135 | 102.73563 | 15194 ft | 311 kts | 35° |
| 2026-04-26 07:37 | 34.96970 | 102.75037 | 15632 ft | 327 kts | 34° |
| 2026-04-26 07:38 | 34.99591 | 102.77133 | 16179 ft | 347 kts | 34° |
| 2026-04-26 07:38 | 35.00957 | 102.78224 | 16446 ft | 357 kts | 34° |
| 2026-04-26 07:38 | 35.03783 | 102.80486 | 16936 ft | 378 kts | 34° |
| 2026-04-26 07:38 | 35.05281 | 102.81686 | 17218 ft | 388 kts | 34° |
| 2026-04-26 07:39 | 35.08354 | 102.84151 | 17658 ft | 409 kts | 34° |
| 2026-04-26 07:39 | 35.09954 | 102.85437 | 17853 ft | 420 kts | 34° |
| 2026-04-26 07:39 | 35.12436 | 102.87434 | 18145 ft | 435 kts | 33° |
| 2026-04-26 07:39 | 35.15875 | 102.90202 | 18865 ft | 446 kts | 33° |
| 2026-04-26 07:40 | 35.18467 | 102.92289 | 19441 ft | 453 kts | 33° |
| 2026-04-26 07:40 | 35.20215 | 102.93698 | 19846 ft | 456 kts | 32° |
| 2026-04-26 07:40 | 35.23772 | 102.96568 | 20599 ft | 464 kts | 32° |
| 2026-04-26 07:40 | 35.26464 | 102.98740 | 21161 ft | 469 kts | 32° |
| 2026-04-26 07:41 | 35.29219 | 103.00964 | 21692 ft | 475 kts | 31° |
| 2026-04-26 07:41 | 35.31974 | 103.03191 | 22189 ft | 481 kts | 31° |
| 2026-04-26 07:41 | 35.33843 | 103.04702 | 22568 ft | 484 kts | 31° |
| 2026-04-26 07:41 | 35.37620 | 103.07758 | 23289 ft | 491 kts | 31° |
| 2026-04-26 07:42 | 35.40449 | 103.10050 | 23878 ft | 494 kts | 31° |
| 2026-04-26 07:42 | 35.43353 | 103.12405 | 24443 ft | 498 kts | 31° |
| 2026-04-26 07:42 | 35.46234 | 103.14747 | 25118 ft | 499 kts | 30° |
| 2026-04-26 07:42 | 35.48144 | 103.16301 | 25698 ft | 496 kts | 30° |
| 2026-04-26 07:43 | 35.51951 | 103.19403 | 26768 ft | 492 kts | 30° |
| 2026-04-26 07:43 | 35.53823 | 103.20930 | 27211 ft | 492 kts | 30° |
| 2026-04-26 07:43 | 35.57619 | 103.24026 | 28213 ft | 489 kts | 30° |
| 2026-04-26 07:43 | 35.60442 | 103.26332 | 28934 ft | 487 kts | 30° |
| 2026-04-26 07:44 | 35.63233 | 103.28613 | 29623 ft | 485 kts | 29° |
| 2026-04-26 07:44 | 35.66043 | 103.30911 | 30251 ft | 484 kts | 29° |
| 2026-04-26 07:44 | 35.68853 | 103.33206 | 30853 ft | 484 kts | 29° |
| 2026-04-26 07:44 | 35.71625 | 103.35473 | 31296 ft | 485 kts | 29° |
| 2026-04-26 07:45 | 35.74466 | 103.37793 | 31349 ft | 489 kts | 29° |
| 2026-04-26 07:45 | 35.80098 | 103.42411 | 31353 ft | 480 kts | 29° |
| 2026-04-26 07:46 | 35.85696 | 103.47016 | 31356 ft | 478 kts | 29° |
| 2026-04-26 07:46 | 35.90342 | 103.50841 | 31342 ft | 480 kts | 29° |
| 2026-04-26 07:47 | 35.96804 | 103.56177 | 31344 ft | 479 kts | 28° |
| 2026-04-26 07:47 | 36.02364 | 103.60770 | 31335 ft | 479 kts | 28° |
| 2026-04-26 07:48 | 36.06998 | 103.64605 | 31322 ft | 479 kts | 28° |
| 2026-04-26 07:48 | 36.13480 | 103.69974 | 31314 ft | 480 kts | 29° |
| 2026-04-26 07:49 | 36.19020 | 103.74571 | 31298 ft | 479 kts | 29° |
| 2026-04-26 07:49 | 36.24519 | 103.79145 | 31299 ft | 479 kts | 28° |
| 2026-04-26 07:50 | 36.32810 | 103.86051 | 31289 ft | 479 kts | 29° |
| 2026-04-26 07:50 | 36.38343 | 103.90673 | 31293 ft | 480 kts | 28° |
| 2026-04-26 07:51 | 36.43871 | 103.95298 | 31284 ft | 480 kts | 28° |
| 2026-04-26 07:51 | 36.48492 | 103.99167 | 31287 ft | 479 kts | 28° |
| 2026-04-26 07:52 | 36.54943 | 104.04582 | 31285 ft | 481 kts | 28° |
| 2026-04-26 07:52 | 36.59565 | 104.08473 | 31292 ft | 480 kts | 28° |
| 2026-04-26 07:53 | 36.65995 | 104.13895 | 31297 ft | 480 kts | 28° |
| 2026-04-26 07:53 | 36.71555 | 104.18582 | 31300 ft | 482 kts | 28° |
| 2026-04-26 07:54 | 36.77094 | 104.23262 | 31303 ft | 480 kts | 28° |
| 2026-04-26 07:54 | 36.82620 | 104.27949 | 31308 ft | 480 kts | 28° |
| 2026-04-26 07:55 | 36.88183 | 104.32667 | 31316 ft | 481 kts | 28° |
| 2026-04-26 07:55 | 36.93707 | 104.37363 | 31325 ft | 481 kts | 28° |
| 2026-04-26 07:56 | 36.98310 | 104.41276 | 31336 ft | 481 kts | 27° |
| 2026-04-26 07:56 | 37.04781 | 104.46789 | 31339 ft | 480 kts | 28° |
| 2026-04-26 07:57 | 37.10311 | 104.51511 | 31325 ft | 480 kts | 27° |
| 2026-04-26 07:57 | 37.15827 | 104.56234 | 31298 ft | 479 kts | 27° |
| 2026-04-26 07:58 | 37.21204 | 104.61274 | 31278 ft | 488 kts | 34° |
| 2026-04-26 07:58 | 37.26042 | 104.67305 | 31273 ft | 492 kts | 42° |
| 2026-04-26 07:59 | 37.30555 | 104.73775 | 31276 ft | 497 kts | 44° |
| 2026-04-26 07:59 | 37.34302 | 104.79269 | 31274 ft | 496 kts | 43° |
| 2026-04-26 08:00 | 37.38823 | 104.85835 | 31264 ft | 496 kts | 43° |
| 2026-04-26 08:00 | 37.43374 | 104.92359 | 31259 ft | 495 kts | 42° |
| 2026-04-26 08:01 | 37.47934 | 104.98860 | 31253 ft | 495 kts | 43° |
| 2026-04-26 08:01 | 37.52188 | 105.04951 | 31221 ft | 496 kts | 43° |
| 2026-04-26 08:02 | 37.55918 | 105.10464 | 31269 ft | 494 kts | 44° |
| 2026-04-26 08:02 | 37.60357 | 105.17058 | 31257 ft | 497 kts | 45° |
| 2026-04-26 08:03 | 37.65302 | 105.25162 | 31245 ft | 501 kts | 47° |
| 2026-04-26 08:03 | 37.69481 | 105.32159 | 31233 ft | 501 kts | 46° |
| 2026-04-26 08:04 | 37.72992 | 105.38041 | 31226 ft | 499 kts | 47° |
| 2026-04-26 08:04 | 37.77874 | 105.46207 | 31219 ft | 501 kts | 46° |
| 2026-04-26 08:05 | 37.82120 | 105.53219 | 31219 ft | 503 kts | 45° |
| 2026-04-26 08:05 | 37.86433 | 105.60226 | 31212 ft | 501 kts | 45° |
| 2026-04-26 08:06 | 37.90656 | 105.67203 | 31207 ft | 502 kts | 46° |
| 2026-04-26 08:06 | 37.94904 | 105.74293 | 31200 ft | 505 kts | 46° |
| 2026-04-26 08:07 | 37.99142 | 105.81381 | 31198 ft | 503 kts | 46° |
| 2026-04-26 08:07 | 38.02660 | 105.87295 | 31191 ft | 505 kts | 46° |
| 2026-04-26 08:08 | 38.07653 | 105.95589 | 31181 ft | 504 kts | 46° |
| 2026-04-26 08:08 | 38.11891 | 106.02625 | 31171 ft | 503 kts | 46° |
| 2026-04-26 08:09 | 38.16188 | 106.09736 | 31165 ft | 506 kts | 46° |
| 2026-04-26 08:09 | 38.20448 | 106.16840 | 31192 ft | 505 kts | 46° |
| 2026-04-26 08:10 | 38.24674 | 106.23939 | 31187 ft | 506 kts | 46° |
| 2026-04-26 08:10 | 38.28902 | 106.31055 | 31185 ft | 506 kts | 46° |
| 2026-04-26 08:11 | 38.33038 | 106.38419 | 31206 ft | 513 kts | 53° |
| 2026-04-26 08:11 | 38.36038 | 106.46737 | 31201 ft | 523 kts | 65° |
| 2026-04-26 08:12 | 38.38313 | 106.55609 | 31199 ft | 525 kts | 68° |
| 2026-04-26 08:12 | 38.40550 | 106.64449 | 31201 ft | 519 kts | 59° |
| 2026-04-26 08:13 | 38.44390 | 106.71988 | 31210 ft | 508 kts | 43° |
| 2026-04-26 08:13 | 38.48268 | 106.77589 | 31209 ft | 502 kts | 39° |
| 2026-04-26 08:14 | 38.53768 | 106.85264 | 31193 ft | 500 kts | 40° |
| 2026-04-26 08:14 | 38.58437 | 106.91915 | 31181 ft | 505 kts | 40° |
| 2026-04-26 08:15 | 38.63081 | 106.98596 | 31168 ft | 502 kts | 41° |
| 2026-04-26 08:15 | 38.67725 | 107.05331 | 31169 ft | 505 kts | 40° |
| 2026-04-26 08:16 | 38.72346 | 107.12123 | 31175 ft | 504 kts | 41° |
| 2026-04-26 08:16 | 38.76944 | 107.18903 | 31175 ft | 504 kts | 40° |
| 2026-04-26 08:17 | 38.81604 | 107.25692 | 31173 ft | 502 kts | 40° |
| 2026-04-26 08:17 | 38.86230 | 107.32459 | 31158 ft | 505 kts | 41° |
| 2026-04-26 08:18 | 38.90850 | 107.39296 | 31165 ft | 503 kts | 40° |
| 2026-04-26 08:18 | 38.95434 | 107.46088 | 31163 ft | 504 kts | 40° |
| 2026-04-26 08:19 | 38.99992 | 107.52864 | 31153 ft | 502 kts | 40° |
| 2026-04-26 08:19 | 39.04593 | 107.59702 | 31162 ft | 503 kts | 41° |
| 2026-04-26 08:20 | 39.09168 | 107.66537 | 31168 ft | 503 kts | 41° |
| 2026-04-26 08:20 | 39.13758 | 107.73463 | 31177 ft | 507 kts | 40° |
| 2026-04-26 08:21 | 39.17624 | 107.79172 | 31180 ft | 507 kts | 41° |
| 2026-04-26 08:21 | 39.22964 | 107.87258 | 31177 ft | 503 kts | 41° |
| 2026-04-26 08:22 | 39.27489 | 107.94102 | 31189 ft | 502 kts | 41° |
| 2026-04-26 08:22 | 39.32124 | 108.01056 | 31195 ft | 509 kts | 40° |
| 2026-04-26 08:23 | 39.36675 | 108.07937 | 31196 ft | 501 kts | 40° |
| 2026-04-26 08:23 | 39.40478 | 108.13689 | 31194 ft | 503 kts | 40° |
| 2026-04-26 08:24 | 39.45801 | 108.21738 | 31184 ft | 505 kts | 40° |
| 2026-04-26 08:24 | 39.50301 | 108.28587 | 31184 ft | 500 kts | 40° |
| 2026-04-26 08:25 | 39.54834 | 108.35568 | 31184 ft | 509 kts | 42° |
| 2026-04-26 08:25 | 39.59065 | 108.42959 | 31185 ft | 510 kts | 46° |
| 2026-04-26 08:26 | 39.63088 | 108.50465 | 31178 ft | 510 kts | 46° |
| 2026-04-26 08:26 | 39.67153 | 108.58048 | 31181 ft | 509 kts | 45° |
| 2026-04-26 08:27 | 39.71225 | 108.65558 | 31180 ft | 510 kts | 46° |
| 2026-04-26 08:27 | 39.75372 | 108.73130 | 31184 ft | 513 kts | 45° |
| 2026-04-26 08:28 | 39.79503 | 108.80666 | 31184 ft | 510 kts | 45° |
| 2026-04-26 08:28 | 39.83656 | 108.88253 | 31188 ft | 514 kts | 45° |
| 2026-04-26 08:29 | 39.87767 | 108.95807 | 31189 ft | 509 kts | 45° |
| 2026-04-26 08:29 | 39.91866 | 109.03346 | 31188 ft | 511 kts | 45° |
| 2026-04-26 08:30 | 39.95984 | 109.10929 | 31186 ft | 510 kts | 45° |
| 2026-04-26 08:30 | 40.00080 | 109.18491 | 31182 ft | 512 kts | 45° |
| 2026-04-26 08:31 | 40.04225 | 109.26146 | 31185 ft | 515 kts | 45° |
| 2026-04-26 08:31 | 40.08332 | 109.33775 | 31163 ft | 509 kts | 45° |
| 2026-04-26 08:32 | 40.12378 | 109.41315 | 31161 ft | 511 kts | 45° |
| 2026-04-26 08:32 | 40.16462 | 109.48934 | 31168 ft | 510 kts | 45° |
| 2026-04-26 08:33 | 40.20571 | 109.56607 | 31144 ft | 510 kts | 45° |
| 2026-04-26 08:33 | 40.24608 | 109.64179 | 31144 ft | 508 kts | 45° |
| 2026-04-26 08:34 | 40.27994 | 109.70538 | 31132 ft | 507 kts | 46° |
| 2026-04-26 08:34 | 40.32706 | 109.79390 | 31152 ft | 507 kts | 46° |
| 2026-04-26 08:35 | 40.36739 | 109.87003 | 31127 ft | 506 kts | 46° |
| 2026-04-26 08:35 | 40.40744 | 109.94569 | 31135 ft | 506 kts | 46° |
| 2026-04-26 08:36 | 40.44666 | 110.02222 | 31120 ft | 507 kts | 49° |
| 2026-04-26 08:36 | 40.47746 | 110.08881 | 31109 ft | 511 kts | 51° |
| 2026-04-26 08:37 | 40.51900 | 110.18232 | 31122 ft | 510 kts | 51° |
| 2026-04-26 08:37 | 40.55506 | 110.26308 | 31120 ft | 508 kts | 51° |
| 2026-04-26 08:38 | 40.59082 | 110.34252 | 31130 ft | 507 kts | 51° |
| 2026-04-26 08:38 | 40.62550 | 110.42358 | 31132 ft | 514 kts | 57° |
| 2026-04-26 08:39 | 40.63793 | 110.46819 | 31130 ft | 524 kts | 69° |
| 2026-04-26 08:39 | 40.64377 | 110.51586 | 31138 ft | 534 kts | 80° |
| 2026-04-26 08:39 | 40.64544 | 110.61397 | 31148 ft | 539 kts | 86° |
| 2026-04-26 08:40 | 40.64386 | 110.69653 | 31135 ft | 540 kts | 88° |
| 2026-04-26 08:40 | 40.64135 | 110.81107 | 31136 ft | 539 kts | 88° |
| 2026-04-26 08:41 | 40.63965 | 110.91009 | 31143 ft | 537 kts | 87° |
| 2026-04-26 08:41 | 40.63851 | 110.99193 | 31150 ft | 536 kts | 86° |
| 2026-04-26 08:42 | 40.63703 | 111.10651 | 31123 ft | 539 kts | 86° |
| 2026-04-26 08:42 | 40.63594 | 111.18901 | 31122 ft | 539 kts | 86° |
| 2026-04-26 08:43 | 40.63458 | 111.28689 | 31128 ft | 538 kts | 86° |
| 2026-04-26 08:43 | 40.63286 | 111.40186 | 31131 ft | 536 kts | 86° |
| 2026-04-26 08:44 | 40.63153 | 111.48343 | 31118 ft | 536 kts | 87° |
| 2026-04-26 08:44 | 40.62962 | 111.59851 | 31108 ft | 540 kts | 86° |
| 2026-04-26 08:45 | 40.62791 | 111.69649 | 31104 ft | 535 kts | 88° |
| 2026-04-26 08:45 | 40.62606 | 111.79426 | 31101 ft | 536 kts | 88° |
| 2026-04-26 08:46 | 40.62412 | 111.89246 | 31094 ft | 536 kts | 88° |
| 2026-04-26 08:46 | 40.62225 | 111.99112 | 31103 ft | 537 kts | 88° |
| 2026-04-26 08:47 | 40.62013 | 112.08890 | 31116 ft | 536 kts | 88° |
| 2026-04-26 08:47 | 40.61788 | 112.18637 | 31122 ft | 533 kts | 88° |
| 2026-04-26 08:48 | 40.61562 | 112.28444 | 31133 ft | 536 kts | 88° |
| 2026-04-26 08:48 | 40.61333 | 112.38189 | 31165 ft | 536 kts | 88° |
| 2026-04-26 08:49 | 40.61093 | 112.48006 | 31125 ft | 533 kts | 87° |
| 2026-04-26 08:49 | 40.60719 | 112.57760 | 31131 ft | 538 kts | 90° |
| 2026-04-26 08:50 | 40.60130 | 112.67550 | 31127 ft | 534 kts | 91° |
| 2026-04-26 08:50 | 40.59478 | 112.77268 | 31090 ft | 533 kts | 93° |
| 2026-04-26 08:51 | 40.58294 | 112.91849 | 31100 ft | 534 kts | 92° |
| 2026-04-26 08:52 | 40.57616 | 113.01580 | 31105 ft | 531 kts | 92° |
| 2026-04-26 08:52 | 40.56975 | 113.11208 | 31109 ft | 533 kts | 92° |
| 2026-04-26 08:53 | 40.56326 | 113.20936 | 31101 ft | 531 kts | 91° |
| 2026-04-26 08:53 | 40.55672 | 113.30573 | 31099 ft | 530 kts | 92° |
| 2026-04-26 08:54 | 40.54999 | 113.40187 | 31096 ft | 533 kts | 92° |
| 2026-04-26 08:54 | 40.54305 | 113.49834 | 31109 ft | 528 kts | 92° |
| 2026-04-26 08:55 | 40.53604 | 113.59459 | 31108 ft | 528 kts | 92° |
| 2026-04-26 08:55 | 40.52910 | 113.69075 | 31119 ft | 528 kts | 92° |
| 2026-04-26 08:56 | 40.52214 | 113.78682 | 31121 ft | 529 kts | 92° |
| 2026-04-26 08:56 | 40.51510 | 113.88246 | 31124 ft | 525 kts | 93° |
| 2026-04-26 08:57 | 40.50799 | 113.97793 | 31116 ft | 526 kts | 93° |
| 2026-04-26 08:57 | 40.50197 | 114.07392 | 31110 ft | 525 kts | 90° |
| 2026-04-26 08:58 | 40.49819 | 114.16894 | 31101 ft | 522 kts | 89° |
| 2026-04-26 08:58 | 40.49474 | 114.26460 | 31098 ft | 523 kts | 89° |
| 2026-04-26 08:59 | 40.49101 | 114.35951 | 31085 ft | 522 kts | 90° |
| 2026-04-26 08:59 | 40.48697 | 114.45420 | 31077 ft | 521 kts | 90° |
| 2026-04-26 09:00 | 40.48267 | 114.54958 | 31078 ft | 523 kts | 90° |
| 2026-04-26 09:00 | 40.47820 | 114.64489 | 31098 ft | 524 kts | 90° |
| 2026-04-26 09:01 | 40.47368 | 114.73981 | 31100 ft | 521 kts | 90° |
| 2026-04-26 09:01 | 40.46914 | 114.83533 | 31116 ft | 523 kts | 91° |
| 2026-04-26 09:02 | 40.46450 | 114.92986 | 31085 ft | 520 kts | 91° |
| 2026-04-26 09:02 | 40.45977 | 115.02457 | 31061 ft | 521 kts | 91° |
| 2026-04-26 09:03 | 40.45492 | 115.12026 | 31056 ft | 522 kts | 91° |
| 2026-04-26 09:03 | 40.45011 | 115.21560 | 31070 ft | 521 kts | 91° |
| 2026-04-26 09:04 | 40.44521 | 115.31010 | 31059 ft | 522 kts | 91° |
| 2026-04-26 09:04 | 40.44245 | 115.35774 | 30892 ft | 525 kts | 94° |
| 2026-04-26 09:04 | 40.43730 | 115.40503 | 30622 ft | 524 kts | 99° |
| 2026-04-26 09:04 | 40.42880 | 115.45151 | 30338 ft | 517 kts | 105° |
| 2026-04-26 09:05 | 40.41705 | 115.49594 | 30035 ft | 512 kts | 112° |
| 2026-04-26 09:05 | 40.40206 | 115.53812 | 29740 ft | 510 kts | 119° |
| 2026-04-26 09:05 | 40.38320 | 115.57691 | 29425 ft | 510 kts | 128° |
| 2026-04-26 09:05 | 40.35998 | 115.61211 | 29149 ft | 509 kts | 138° |
| 2026-04-26 09:06 | 40.33317 | 115.64216 | 28836 ft | 506 kts | 147° |
| 2026-04-26 09:06 | 40.30336 | 115.66650 | 28522 ft | 499 kts | 157° |
| 2026-04-26 09:06 | 40.27140 | 115.68452 | 28227 ft | 493 kts | 166° |
| 2026-04-26 09:06 | 40.23869 | 115.69557 | 27936 ft | 487 kts | 176° |
| 2026-04-26 09:07 | 40.20511 | 115.70087 | 27579 ft | 484 kts | 181° |
| 2026-04-26 09:07 | 40.17130 | 115.70358 | 27035 ft | 479 kts | 182° |
| 2026-04-26 09:07 | 40.13862 | 115.70643 | 26473 ft | 465 kts | 180° |
| 2026-04-26 09:07 | 40.10664 | 115.71104 | 25929 ft | 453 kts | 177° |
| 2026-04-26 09:08 | 40.07609 | 115.71814 | 25411 ft | 442 kts | 172° |
| 2026-04-26 09:08 | 40.04663 | 115.72919 | 24852 ft | 435 kts | 163° |
| 2026-04-26 09:08 | 40.01949 | 115.74602 | 24297 ft | 428 kts | 153° |
| 2026-04-26 09:08 | 39.99543 | 115.76844 | 23723 ft | 425 kts | 141° |
| 2026-04-26 09:09 | 39.97466 | 115.79524 | 23189 ft | 425 kts | 134° |
| 2026-04-26 09:09 | 39.95513 | 115.82469 | 22641 ft | 426 kts | 132° |
| 2026-04-26 09:09 | 39.93617 | 115.85411 | 22004 ft | 424 kts | 132° |
| 2026-04-26 09:09 | 39.91706 | 115.88296 | 21333 ft | 417 kts | 133° |
| 2026-04-26 09:10 | 39.89793 | 115.91061 | 20669 ft | 410 kts | 134° |
| 2026-04-26 09:10 | 39.87861 | 115.93740 | 20013 ft | 403 kts | 135° |
| 2026-04-26 09:10 | 39.85919 | 115.96356 | 19349 ft | 397 kts | 135° |
| 2026-04-26 09:10 | 39.84002 | 115.98888 | 18711 ft | 391 kts | 135° |
| 2026-04-26 09:11 | 39.82099 | 116.01377 | 18023 ft | 387 kts | 135° |
| 2026-04-26 09:11 | 39.80185 | 116.03866 | 17309 ft | 383 kts | 135° |
| 2026-04-26 09:11 | 39.78319 | 116.06280 | 16609 ft | 379 kts | 135° |
| 2026-04-26 09:11 | 39.76452 | 116.08691 | 15936 ft | 376 kts | 135° |
| 2026-04-26 09:12 | 39.74596 | 116.11089 | 15258 ft | 372 kts | 135° |
| 2026-04-26 09:12 | 39.72772 | 116.13444 | 14579 ft | 368 kts | 135° |
| 2026-04-26 09:12 | 39.70976 | 116.15761 | 13902 ft | 365 kts | 136° |
| 2026-04-26 09:12 | 39.69173 | 116.18082 | 13198 ft | 362 kts | 135° |
| 2026-04-26 09:13 | 39.67397 | 116.20361 | 12563 ft | 358 kts | 135° |
| 2026-04-26 09:13 | 39.65638 | 116.22614 | 11899 ft | 355 kts | 135° |
| 2026-04-26 09:13 | 39.63903 | 116.24837 | 11235 ft | 351 kts | 135° |
| 2026-04-26 09:13 | 39.62162 | 116.27068 | 10569 ft | 347 kts | 135° |
| 2026-04-26 09:14 | 39.60448 | 116.29265 | 9911 ft | 343 kts | 134° |
| 2026-04-26 09:14 | 39.58778 | 116.31404 | 9262 ft | 340 kts | 134° |
| 2026-04-26 09:14 | 39.57101 | 116.33548 | 8599 ft | 336 kts | 134° |
| 2026-04-26 09:14 | 39.55455 | 116.35651 | 7940 ft | 332 kts | 134° |
| 2026-04-26 09:15 | 39.53807 | 116.37761 | 7264 ft | 327 kts | 131° |
| 2026-04-26 09:15 | 39.52372 | 116.39995 | 6599 ft | 321 kts | 121° |
| 2026-04-26 09:15 | 39.51519 | 116.42610 | 5925 ft | 312 kts | 97° |
| 2026-04-26 09:15 | 39.51672 | 116.45322 | 5271 ft | 304 kts | 71° |
| 2026-04-26 09:16 | 39.52666 | 116.47681 | 4618 ft | 300 kts | 51° |
| 2026-04-26 09:16 | 39.54148 | 116.49578 | 3988 ft | 296 kts | 39° |
| 2026-04-26 09:16 | 39.55849 | 116.50988 | 3647 ft | 285 kts | 30° |
| 2026-04-26 09:16 | 39.57565 | 116.52123 | 3399 ft | 271 kts | 28° |
| 2026-04-26 09:17 | 39.59254 | 116.53198 | 3178 ft | 265 kts | 29° |
| 2026-04-26 09:17 | 39.60345 | 116.53914 | 3004 ft | 262 kts | 30° |
| 2026-04-26 09:17 | 39.62461 | 116.55360 | 2677 ft | 258 kts | 31° |
| 2026-04-26 09:17 | 39.64040 | 116.56460 | 2426 ft | 253 kts | 31° |
| 2026-04-26 09:18 | 39.65583 | 116.57538 | 2176 ft | 249 kts | 31° |
| 2026-04-26 09:18 | 39.67081 | 116.58586 | 1941 ft | 244 kts | 32° |
| 2026-04-26 09:18 | 39.68567 | 116.59623 | 1861 ft | 236 kts | 32° |
| 2026-04-26 09:18 | 39.70005 | 116.60626 | 1866 ft | 237 kts | 31° |
| 2026-04-26 09:19 | 39.71474 | 116.61655 | 1865 ft | 238 kts | 32° |
| 2026-04-26 09:19 | 39.72899 | 116.62649 | 1844 ft | 227 kts | 31° |
| 2026-04-26 09:19 | 39.74283 | 116.63613 | 1856 ft | 220 kts | 32° |
| 2026-04-26 09:19 | 39.75611 | 116.64547 | 1869 ft | 220 kts | 31° |
| 2026-04-26 09:20 | 39.76977 | 116.65498 | 1858 ft | 223 kts | 30° |
| 2026-04-26 09:20 | 39.78447 | 116.66156 | 1850 ft | 227 kts | 9° |
| 2026-04-26 09:20 | 39.80032 | 116.65991 | 1864 ft | 230 kts | 351° |
| 2026-04-26 09:20 | 39.81585 | 116.65577 | 1849 ft | 219 kts | 353° |
| 2026-04-26 09:21 | 39.83059 | 116.65301 | 1848 ft | 207 kts | 356° |
| 2026-04-26 09:21 | 39.84439 | 116.65103 | 1850 ft | 188 kts | 356° |
| 2026-04-26 09:21 | 39.85656 | 116.64917 | 1885 ft | 162 kts | 357° |
| 2026-04-26 09:21 | 39.86763 | 116.64743 | 1854 ft | 159 kts | 357° |
| 2026-04-26 09:22 | 39.87890 | 116.64574 | 1867 ft | 165 kts | 357° |
| 2026-04-26 09:22 | 39.89017 | 116.64397 | 1856 ft | 162 kts | 357° |
| 2026-04-26 09:22 | 39.90133 | 116.64220 | 1866 ft | 161 kts | 357° |
| 2026-04-26 09:22 | 39.91264 | 116.64043 | 1871 ft | 162 kts | 357° |
| 2026-04-26 09:23 | 39.92386 | 116.63868 | 1865 ft | 162 kts | 356° |
| 2026-04-26 09:23 | 39.93510 | 116.63694 | 1868 ft | 163 kts | 356° |
| 2026-04-26 09:23 | 39.94647 | 116.63519 | 1863 ft | 163 kts | 356° |
| 2026-04-26 09:23 | 39.95765 | 116.63345 | 1864 ft | 162 kts | 356° |
| 2026-04-26 09:24 | 39.96897 | 116.63168 | 1858 ft | 164 kts | 356° |
| 2026-04-26 09:24 | 39.98044 | 116.62989 | 1679 ft | 167 kts | 356° |
| 2026-04-26 09:24 | 39.99209 | 116.62804 | 1415 ft | 162 kts | 356° |
| 2026-04-26 09:24 | 40.00313 | 116.62632 | 1222 ft | 161 kts | 356° |
| 2026-04-26 09:25 | 40.01436 | 116.62456 | 1002 ft | 163 kts | 355° |
| 2026-04-26 09:25 | 40.02553 | 116.62280 | 781 ft | 161 kts | 355° |
| 2026-04-26 09:25 | 40.03663 | 116.62109 | 589 ft | 157 kts | 355° |
| 2026-04-26 09:25 | 40.04744 | 116.61932 | 386 ft | 158 kts | 354° |
| 2026-04-26 09:26 | 40.05846 | 116.61762 | 185 ft | 160 kts | 355° |
| 2026-04-26 09:26 | 40.06936 | 116.61612 | 124 ft | 142 kts | 354° |
| 2026-04-26 09:26 | 40.07698 | 116.61484 | 123 ft | 80 kts | 352° |
| 2026-04-26 09:26 | 40.08128 | 116.61414 | 123 ft | 52 kts | 347° |
| 2026-04-26 09:27 | 40.08336 | 116.61285 | 123 ft | 14 kts | 324° |
| 2026-04-26 09:27 | 40.08398 | 116.61196 | 123 ft | 11 kts | 271° |
| 2026-04-26 09:27 | 40.08326 | 116.61144 | 123 ft | 16 kts | 173° |
| 2026-04-26 09:27 | 40.08193 | 116.61163 | 123 ft | 21 kts | 173° |
| 2026-04-26 09:28 | 40.08095 | 116.61079 | 123 ft | 22 kts | 262° |
| 2026-04-26 09:28 | 40.08049 | 116.60908 | 123 ft | 12 kts | 233° |
| 2026-04-26 09:28 | 40.08037 | 116.60895 | 123 ft | 1 kts | 187° |
| 2026-04-26 09:28 | 40.08013 | 116.60907 | 123 ft | 4 kts | 150° |
| 2026-04-26 09:29 | 40.07985 | 116.60934 | 123 ft | 4 kts | 144° |
| 2026-04-26 09:29 | 40.07964 | 116.60953 | 123 ft | 1 kts | 143° |
| 2026-04-26 09:29 | 40.07962 | 116.60957 | 123 ft | 0 kts | 143° |